sensor_id;sensor_type;location;lat;lon;timestamp;temperature;humidity
37702;DHT22;23548;51.196;6.838;2024-03-02T00:00:09;8.10;99.90
37702;DHT22;23548;51.196;6.838;2024-03-02T00:02:41;8.10;99.90
37702;DHT22;23548;51.196;6.838;2024-03-02T00:05:08;8.20;99.90
37702;DHT22;23548;51.196;6.838;2024-03-02T00:07:36;8.20;99.90
37702;DHT22;23548;51.196;6.838;2024-03-02T00:10:08;8.20;99.90
37702;DHT22;23548;51.196;6.838;2024-03-02T00:12:38;8.30;99.90
37702;DHT22;23548;51.196;6.838;2024-03-02T00:16:00;8.30;99.90
37702;DHT22;23548;51.196;6.838;2024-03-02T00:18:40;8.40;99.90
37702;DHT22;23548;51.196;6.838;2024-03-02T00:21:06;8.40;99.90
37702;DHT22;23548;51.196;6.838;2024-03-02T00:23:35;8.50;99.90
37702;DHT22;23548;51.196;6.838;2024-03-02T00:26:01;8.60;99.90
37702;DHT22;23548;51.196;6.838;2024-03-02T00:28:30;8.60;99.90
37702;DHT22;23548;51.196;6.838;2024-03-02T00:31:09;8.60;99.90
37702;DHT22;23548;51.196;6.838;2024-03-02T00:36:09;8.70;99.50
37702;DHT22;23548;51.196;6.838;2024-03-02T00:38:46;8.70;99.80
37702;DHT22;23548;51.196;6.838;2024-03-02T00:41:27;8.70;99.70
37702;DHT22;23548;51.196;6.838;2024-03-02T00:44:00;8.80;99.90
37702;DHT22;23548;51.196;6.838;2024-03-02T00:46:34;8.70;99.90
37702;DHT22;23548;51.196;6.838;2024-03-02T00:49:01;8.60;99.70
37702;DHT22;23548;51.196;6.838;2024-03-02T00:51:31;8.60;99.90
37702;DHT22;23548;51.196;6.838;2024-03-02T00:54:05;8.60;99.80
37702;DHT22;23548;51.196;6.838;2024-03-02T00:56:32;8.60;99.80
37702;DHT22;23548;51.196;6.838;2024-03-02T00:58:59;8.70;99.90
37702;DHT22;23548;51.196;6.838;2024-03-02T01:01:24;8.80;99.90
37702;DHT22;23548;51.196;6.838;2024-03-02T01:03:50;8.90;99.90
37702;DHT22;23548;51.196;6.838;2024-03-02T01:06:16;8.80;99.20
37702;DHT22;23548;51.196;6.838;2024-03-02T01:08:42;8.70;99.90
37702;DHT22;23548;51.196;6.838;2024-03-02T01:11:08;8.70;99.60
37702;DHT22;23548;51.196;6.838;2024-03-02T01:13:34;8.60;99.90
37702;DHT22;23548;51.196;6.838;2024-03-02T01:16:00;8.60;99.90
37702;DHT22;23548;51.196;6.838;2024-03-02T01:18:26;8.70;99.90
37702;DHT22;23548;51.196;6.838;2024-03-02T01:20:52;8.60;99.30
37702;DHT22;23548;51.196;6.838;2024-03-02T01:23:19;8.50;99.90
37702;DHT22;23548;51.196;6.838;2024-03-02T01:25:47;8.50;99.90
37702;DHT22;23548;51.196;6.838;2024-03-02T01:28:14;8.40;99.90
37702;DHT22;23548;51.196;6.838;2024-03-02T01:30:39;8.30;99.90
37702;DHT22;23548;51.196;6.838;2024-03-02T01:33:05;8.10;99.90
37702;DHT22;23548;51.196;6.838;2024-03-02T01:35:32;8.20;99.90
37702;DHT22;23548;51.196;6.838;2024-03-02T01:37:58;8.20;99.90
37702;DHT22;23548;51.196;6.838;2024-03-02T01:40:24;8.20;99.90
37702;DHT22;23548;51.196;6.838;2024-03-02T01:42:54;8.10;99.90
37702;DHT22;23548;51.196;6.838;2024-03-02T01:45:20;8.20;99.90
37702;DHT22;23548;51.196;6.838;2024-03-02T01:47:46;8.20;99.90
37702;DHT22;23548;51.196;6.838;2024-03-02T01:50:12;8.40;99.70
37702;DHT22;23548;51.196;6.838;2024-03-02T01:52:38;8.40;99.90
37702;DHT22;23548;51.196;6.838;2024-03-02T01:55:05;8.30;99.90
37702;DHT22;23548;51.196;6.838;2024-03-02T01:57:32;8.30;99.90
37702;DHT22;23548;51.196;6.838;2024-03-02T01:59:58;8.40;99.90
37702;DHT22;23548;51.196;6.838;2024-03-02T02:02:24;8.40;99.90
37702;DHT22;23548;51.196;6.838;2024-03-02T02:04:49;8.50;99.90
37702;DHT22;23548;51.196;6.838;2024-03-02T02:07:15;8.70;99.50
37702;DHT22;23548;51.196;6.838;2024-03-02T02:09:44;8.70;99.10
37702;DHT22;23548;51.196;6.838;2024-03-02T02:12:10;8.70;99.90
37702;DHT22;23548;51.196;6.838;2024-03-02T02:14:36;8.70;98.10
37702;DHT22;23548;51.196;6.838;2024-03-02T02:17:02;8.70;98.50
37702;DHT22;23548;51.196;6.838;2024-03-02T02:19:28;8.70;98.80
37702;DHT22;23548;51.196;6.838;2024-03-02T02:21:54;8.80;98.20
37702;DHT22;23548;51.196;6.838;2024-03-02T02:24:20;8.80;98.50
37702;DHT22;23548;51.196;6.838;2024-03-02T02:26:46;8.80;98.10
37702;DHT22;23548;51.196;6.838;2024-03-02T02:29:11;8.70;97.80
37702;DHT22;23548;51.196;6.838;2024-03-02T02:31:41;8.80;97.40
37702;DHT22;23548;51.196;6.838;2024-03-02T02:34:07;8.90;97.40
37702;DHT22;23548;51.196;6.838;2024-03-02T02:36:34;9.00;96.90
37702;DHT22;23548;51.196;6.838;2024-03-02T02:39:03;9.10;97.10
37702;DHT22;23548;51.196;6.838;2024-03-02T02:44:51;9.10;96.70
37702;DHT22;23548;51.196;6.838;2024-03-02T02:47:17;9.10;96.80
37702;DHT22;23548;51.196;6.838;2024-03-02T02:49:42;9.10;96.20
37702;DHT22;23548;51.196;6.838;2024-03-02T02:52:08;9.10;96.40
37702;DHT22;23548;51.196;6.838;2024-03-02T02:54:34;9.00;97.10
37702;DHT22;23548;51.196;6.838;2024-03-02T02:56:59;9.00;96.40
37702;DHT22;23548;51.196;6.838;2024-03-02T02:59:25;9.00;96.40
37702;DHT22;23548;51.196;6.838;2024-03-02T03:01:51;9.00;96.50
37702;DHT22;23548;51.196;6.838;2024-03-02T03:04:17;9.00;96.50
37702;DHT22;23548;51.196;6.838;2024-03-02T03:06:43;8.90;96.60
37702;DHT22;23548;51.196;6.838;2024-03-02T03:09:09;8.90;98.50
37702;DHT22;23548;51.196;6.838;2024-03-02T03:11:36;8.90;97.30
37702;DHT22;23548;51.196;6.838;2024-03-02T03:14:02;8.90;97.50
37702;DHT22;23548;51.196;6.838;2024-03-02T03:16:29;8.90;96.80
37702;DHT22;23548;51.196;6.838;2024-03-02T03:18:54;8.90;97.20
37702;DHT22;23548;51.196;6.838;2024-03-02T03:21:20;8.90;96.90
37702;DHT22;23548;51.196;6.838;2024-03-02T03:23:46;8.90;96.60
37702;DHT22;23548;51.196;6.838;2024-03-02T03:26:12;9.00;96.60
37702;DHT22;23548;51.196;6.838;2024-03-02T03:28:38;9.00;96.50
37702;DHT22;23548;51.196;6.838;2024-03-02T03:31:04;9.00;96.30
37702;DHT22;23548;51.196;6.838;2024-03-02T03:33:30;9.00;96.70
37702;DHT22;23548;51.196;6.838;2024-03-02T03:35:55;8.90;96.70
37702;DHT22;23548;51.196;6.838;2024-03-02T03:38:21;8.90;96.60
37702;DHT22;23548;51.196;6.838;2024-03-02T03:40:47;8.90;96.80
37702;DHT22;23548;51.196;6.838;2024-03-02T03:43:13;8.90;96.90
37702;DHT22;23548;51.196;6.838;2024-03-02T03:45:39;8.90;96.70
37702;DHT22;23548;51.196;6.838;2024-03-02T03:48:04;8.90;97.10
37702;DHT22;23548;51.196;6.838;2024-03-02T03:50:30;8.90;97.70
37702;DHT22;23548;51.196;6.838;2024-03-02T03:52:56;8.90;97.50
37702;DHT22;23548;51.196;6.838;2024-03-02T03:55:21;8.90;97.10
37702;DHT22;23548;51.196;6.838;2024-03-02T03:57:47;8.80;97.20
37702;DHT22;23548;51.196;6.838;2024-03-02T04:00:13;8.70;97.80
37702;DHT22;23548;51.196;6.838;2024-03-02T04:02:39;8.60;97.90
37702;DHT22;23548;51.196;6.838;2024-03-02T04:05:05;8.60;99.10
37702;DHT22;23548;51.196;6.838;2024-03-02T04:07:35;8.50;97.90
37702;DHT22;23548;51.196;6.838;2024-03-02T04:10:06;8.40;98.40
37702;DHT22;23548;51.196;6.838;2024-03-02T04:12:34;8.40;98.60
37702;DHT22;23548;51.196;6.838;2024-03-02T04:15:01;8.20;98.60
37702;DHT22;23548;51.196;6.838;2024-03-02T04:17:27;8.10;99.10
37702;DHT22;23548;51.196;6.838;2024-03-02T04:19:53;8.20;99.90
37702;DHT22;23548;51.196;6.838;2024-03-02T04:22:18;8.20;99.90
37702;DHT22;23548;51.196;6.838;2024-03-02T04:24:44;8.10;99.90
37702;DHT22;23548;51.196;6.838;2024-03-02T04:27:10;8.10;99.90
37702;DHT22;23548;51.196;6.838;2024-03-02T04:29:35;8.10;99.90
37702;DHT22;23548;51.196;6.838;2024-03-02T04:32:01;8.00;99.70
37702;DHT22;23548;51.196;6.838;2024-03-02T04:34:27;7.90;99.90
37702;DHT22;23548;51.196;6.838;2024-03-02T04:36:52;7.80;99.90
37702;DHT22;23548;51.196;6.838;2024-03-02T04:39:18;7.80;99.90
37702;DHT22;23548;51.196;6.838;2024-03-02T04:41:44;7.90;99.90
37702;DHT22;23548;51.196;6.838;2024-03-02T04:44:09;8.10;99.90
37702;DHT22;23548;51.196;6.838;2024-03-02T04:46:35;8.10;99.90
37702;DHT22;23548;51.196;6.838;2024-03-02T04:49:01;8.00;99.90
37702;DHT22;23548;51.196;6.838;2024-03-02T04:51:27;7.90;99.90
37702;DHT22;23548;51.196;6.838;2024-03-02T04:53:52;7.90;99.90
37702;DHT22;23548;51.196;6.838;2024-03-02T04:56:18;7.90;99.90
37702;DHT22;23548;51.196;6.838;2024-03-02T04:59:02;7.80;99.90
37702;DHT22;23548;51.196;6.838;2024-03-02T05:01:28;7.80;99.90
37702;DHT22;23548;51.196;6.838;2024-03-02T05:03:53;7.70;99.90
37702;DHT22;23548;51.196;6.838;2024-03-02T05:06:19;7.80;99.90
37702;DHT22;23548;51.196;6.838;2024-03-02T05:08:45;7.70;99.90
37702;DHT22;23548;51.196;6.838;2024-03-02T05:11:11;7.80;99.90
37702;DHT22;23548;51.196;6.838;2024-03-02T05:14:14;7.80;99.90
37702;DHT22;23548;51.196;6.838;2024-03-02T05:16:39;7.70;99.90
37702;DHT22;23548;51.196;6.838;2024-03-02T05:19:07;7.60;99.90
37702;DHT22;23548;51.196;6.838;2024-03-02T05:21:33;7.70;99.90
37702;DHT22;23548;51.196;6.838;2024-03-02T05:23:59;7.70;99.90
37702;DHT22;23548;51.196;6.838;2024-03-02T05:26:25;7.60;99.90
37702;DHT22;23548;51.196;6.838;2024-03-02T05:28:51;7.50;99.90
37702;DHT22;23548;51.196;6.838;2024-03-02T05:31:17;7.50;99.90
37702;DHT22;23548;51.196;6.838;2024-03-02T05:33:43;7.40;99.90
37702;DHT22;23548;51.196;6.838;2024-03-02T05:36:09;7.30;99.90
37702;DHT22;23548;51.196;6.838;2024-03-02T05:38:35;7.30;99.90
37702;DHT22;23548;51.196;6.838;2024-03-02T05:41:01;7.20;99.90
37702;DHT22;23548;51.196;6.838;2024-03-02T05:43:27;7.20;99.90
37702;DHT22;23548;51.196;6.838;2024-03-02T05:45:53;7.30;99.90
37702;DHT22;23548;51.196;6.838;2024-03-02T05:48:19;7.30;99.90
37702;DHT22;23548;51.196;6.838;2024-03-02T05:50:45;7.10;99.90
37702;DHT22;23548;51.196;6.838;2024-03-02T05:53:10;7.10;99.90
37702;DHT22;23548;51.196;6.838;2024-03-02T05:55:36;7.10;99.90
37702;DHT22;23548;51.196;6.838;2024-03-02T05:58:02;7.10;99.90
37702;DHT22;23548;51.196;6.838;2024-03-02T06:00:48;6.90;99.90
37702;DHT22;23548;51.196;6.838;2024-03-02T06:03:14;6.90;99.90
37702;DHT22;23548;51.196;6.838;2024-03-02T06:05:39;6.90;99.90
37702;DHT22;23548;51.196;6.838;2024-03-02T06:08:06;6.90;99.90
37702;DHT22;23548;51.196;6.838;2024-03-02T06:10:33;6.90;99.90
37702;DHT22;23548;51.196;6.838;2024-03-02T06:12:58;6.80;99.90
37702;DHT22;23548;51.196;6.838;2024-03-02T06:15:24;6.90;99.90
37702;DHT22;23548;51.196;6.838;2024-03-02T06:17:50;7.00;99.90
37702;DHT22;23548;51.196;6.838;2024-03-02T06:20:16;7.10;99.90
37702;DHT22;23548;51.196;6.838;2024-03-02T06:22:41;7.30;99.90
37702;DHT22;23548;51.196;6.838;2024-03-02T06:25:07;7.30;99.90
37702;DHT22;23548;51.196;6.838;2024-03-02T06:27:33;7.30;99.90
37702;DHT22;23548;51.196;6.838;2024-03-02T06:29:59;7.30;99.90
37702;DHT22;23548;51.196;6.838;2024-03-02T06:32:25;7.30;99.90
37702;DHT22;23548;51.196;6.838;2024-03-02T06:34:50;7.30;99.90
37702;DHT22;23548;51.196;6.838;2024-03-02T06:37:16;7.40;99.90
37702;DHT22;23548;51.196;6.838;2024-03-02T06:39:43;7.50;99.90
37702;DHT22;23548;51.196;6.838;2024-03-02T06:42:08;7.50;99.90
37702;DHT22;23548;51.196;6.838;2024-03-02T06:44:34;7.40;99.90
37702;DHT22;23548;51.196;6.838;2024-03-02T06:47:00;7.40;99.90
37702;DHT22;23548;51.196;6.838;2024-03-02T06:49:25;7.50;99.90
37702;DHT22;23548;51.196;6.838;2024-03-02T06:51:51;7.60;99.90
37702;DHT22;23548;51.196;6.838;2024-03-02T06:54:17;7.70;99.90
37702;DHT22;23548;51.196;6.838;2024-03-02T06:56:43;7.70;99.90
37702;DHT22;23548;51.196;6.838;2024-03-02T06:59:08;7.70;99.90
37702;DHT22;23548;51.196;6.838;2024-03-02T07:01:34;7.80;99.90
37702;DHT22;23548;51.196;6.838;2024-03-02T07:04:00;8.00;99.90
37702;DHT22;23548;51.196;6.838;2024-03-02T07:06:26;8.10;99.90
37702;DHT22;23548;51.196;6.838;2024-03-02T07:08:51;8.10;99.90
37702;DHT22;23548;51.196;6.838;2024-03-02T07:11:17;8.20;99.90
37702;DHT22;23548;51.196;6.838;2024-03-02T07:13:43;8.20;99.90
37702;DHT22;23548;51.196;6.838;2024-03-02T07:16:08;8.30;99.90
37702;DHT22;23548;51.196;6.838;2024-03-02T07:18:34;8.40;99.90
37702;DHT22;23548;51.196;6.838;2024-03-02T07:21:05;8.60;99.90
37702;DHT22;23548;51.196;6.838;2024-03-02T07:23:30;8.70;99.90
37702;DHT22;23548;51.196;6.838;2024-03-02T07:25:57;8.80;99.90
37702;DHT22;23548;51.196;6.838;2024-03-02T07:28:27;8.80;99.90
37702;DHT22;23548;51.196;6.838;2024-03-02T07:31:04;8.90;99.90
37702;DHT22;23548;51.196;6.838;2024-03-02T07:33:30;8.80;99.90
37702;DHT22;23548;51.196;6.838;2024-03-02T07:35:57;8.90;99.90
37702;DHT22;23548;51.196;6.838;2024-03-02T07:38:25;9.00;99.90
37702;DHT22;23548;51.196;6.838;2024-03-02T07:40:51;9.10;99.90
37702;DHT22;23548;51.196;6.838;2024-03-02T07:43:20;9.20;99.40
37702;DHT22;23548;51.196;6.838;2024-03-02T07:45:46;9.20;99.00
37702;DHT22;23548;51.196;6.838;2024-03-02T07:48:12;9.50;99.10
37702;DHT22;23548;51.196;6.838;2024-03-02T07:50:38;9.70;98.90
37702;DHT22;23548;51.196;6.838;2024-03-02T07:53:04;9.90;98.40
37702;DHT22;23548;51.196;6.838;2024-03-02T07:55:31;10.00;97.00
37702;DHT22;23548;51.196;6.838;2024-03-02T07:57:57;10.00;96.20
37702;DHT22;23548;51.196;6.838;2024-03-02T08:00:23;10.10;96.30
37702;DHT22;23548;51.196;6.838;2024-03-02T08:02:50;10.00;96.30
37702;DHT22;23548;51.196;6.838;2024-03-02T08:05:19;10.00;96.30
37702;DHT22;23548;51.196;6.838;2024-03-02T08:07:46;10.00;96.10
37702;DHT22;23548;51.196;6.838;2024-03-02T08:10:12;9.90;96.70
37702;DHT22;23548;51.196;6.838;2024-03-02T08:12:38;10.10;97.10
37702;DHT22;23548;51.196;6.838;2024-03-02T08:15:05;10.30;95.80
37702;DHT22;23548;51.196;6.838;2024-03-02T08:17:31;10.30;95.10
37702;DHT22;23548;51.196;6.838;2024-03-02T08:19:57;10.40;95.30
37702;DHT22;23548;51.196;6.838;2024-03-02T08:22:23;10.70;95.20
37702;DHT22;23548;51.196;6.838;2024-03-02T08:24:51;10.80;94.50
37702;DHT22;23548;51.196;6.838;2024-03-02T08:27:17;10.80;94.30
37702;DHT22;23548;51.196;6.838;2024-03-02T08:29:42;11.00;94.00
37702;DHT22;23548;51.196;6.838;2024-03-02T08:32:08;11.10;94.50
37702;DHT22;23548;51.196;6.838;2024-03-02T08:34:34;11.10;95.50
37702;DHT22;23548;51.196;6.838;2024-03-02T08:37:01;10.90;95.00
37702;DHT22;23548;51.196;6.838;2024-03-02T08:39:28;10.90;93.60
37702;DHT22;23548;51.196;6.838;2024-03-02T08:41:53;10.70;93.60
37702;DHT22;23548;51.196;6.838;2024-03-02T08:44:20;10.70;93.50
37702;DHT22;23548;51.196;6.838;2024-03-02T08:46:46;10.40;93.80
37702;DHT22;23548;51.196;6.838;2024-03-02T08:49:13;10.30;94.50
37702;DHT22;23548;51.196;6.838;2024-03-02T08:51:38;10.30;95.50
37702;DHT22;23548;51.196;6.838;2024-03-02T08:54:04;10.30;95.50
37702;DHT22;23548;51.196;6.838;2024-03-02T08:56:31;10.40;95.00
37702;DHT22;23548;51.196;6.838;2024-03-02T08:58:57;10.30;94.40
37702;DHT22;23548;51.196;6.838;2024-03-02T09:01:22;10.30;94.70
37702;DHT22;23548;51.196;6.838;2024-03-02T09:03:48;10.50;93.90
37702;DHT22;23548;51.196;6.838;2024-03-02T09:06:17;10.30;94.40
37702;DHT22;23548;51.196;6.838;2024-03-02T09:08:43;10.40;93.80
37702;DHT22;23548;51.196;6.838;2024-03-02T09:11:10;10.50;94.20
37702;DHT22;23548;51.196;6.838;2024-03-02T09:13:36;10.70;94.60
37702;DHT22;23548;51.196;6.838;2024-03-02T09:16:03;10.90;93.90
37702;DHT22;23548;51.196;6.838;2024-03-02T09:18:29;11.00;93.50
37702;DHT22;23548;51.196;6.838;2024-03-02T09:20:55;11.10;93.50
37702;DHT22;23548;51.196;6.838;2024-03-02T09:23:21;11.30;93.70
37702;DHT22;23548;51.196;6.838;2024-03-02T09:25:47;11.30;92.50
37702;DHT22;23548;51.196;6.838;2024-03-02T09:28:12;11.50;93.40
37702;DHT22;23548;51.196;6.838;2024-03-02T09:30:38;11.50;91.70
37702;DHT22;23548;51.196;6.838;2024-03-02T09:33:04;11.50;92.80
37702;DHT22;23548;51.196;6.838;2024-03-02T09:35:30;11.80;92.60
37702;DHT22;23548;51.196;6.838;2024-03-02T09:37:55;11.80;91.10
37702;DHT22;23548;51.196;6.838;2024-03-02T09:40:24;12.10;92.50
37702;DHT22;23548;51.196;6.838;2024-03-02T09:42:51;12.20;90.60
37702;DHT22;23548;51.196;6.838;2024-03-02T09:45:27;12.30;89.60
37702;DHT22;23548;51.196;6.838;2024-03-02T09:47:53;12.40;88.10
37702;DHT22;23548;51.196;6.838;2024-03-02T09:50:18;12.70;91.20
37702;DHT22;23548;51.196;6.838;2024-03-02T09:52:49;12.90;87.80
37702;DHT22;23548;51.196;6.838;2024-03-02T09:55:16;12.90;87.60
37702;DHT22;23548;51.196;6.838;2024-03-02T09:57:43;12.90;87.90
37702;DHT22;23548;51.196;6.838;2024-03-02T10:00:09;13.00;86.60
37702;DHT22;23548;51.196;6.838;2024-03-02T10:02:41;13.10;84.80
37702;DHT22;23548;51.196;6.838;2024-03-02T10:05:08;13.30;83.40
37702;DHT22;23548;51.196;6.838;2024-03-02T10:07:34;13.30;81.30
37702;DHT22;23548;51.196;6.838;2024-03-02T10:10:15;13.20;81.70
37702;DHT22;23548;51.196;6.838;2024-03-02T10:12:41;13.40;83.50
37702;DHT22;23548;51.196;6.838;2024-03-02T10:15:07;13.70;80.80
37702;DHT22;23548;51.196;6.838;2024-03-02T10:17:33;13.70;82.80
37702;DHT22;23548;51.196;6.838;2024-03-02T10:19:59;13.50;79.60
37702;DHT22;23548;51.196;6.838;2024-03-02T10:22:24;13.50;80.40
37702;DHT22;23548;51.196;6.838;2024-03-02T10:24:52;13.50;79.90
37702;DHT22;23548;51.196;6.838;2024-03-02T10:27:23;13.40;80.20
37702;DHT22;23548;51.196;6.838;2024-03-02T10:29:49;13.70;80.90
37702;DHT22;23548;51.196;6.838;2024-03-02T10:32:16;14.10;83.30
37702;DHT22;23548;51.196;6.838;2024-03-02T10:34:45;14.10;80.90
37702;DHT22;23548;51.196;6.838;2024-03-02T10:37:12;14.20;77.50
37702;DHT22;23548;51.196;6.838;2024-03-02T10:39:39;14.10;77.40
37702;DHT22;23548;51.196;6.838;2024-03-02T10:42:06;14.20;77.70
37702;DHT22;23548;51.196;6.838;2024-03-02T10:44:32;14.40;77.30
37702;DHT22;23548;51.196;6.838;2024-03-02T10:47:03;14.40;76.90
37702;DHT22;23548;51.196;6.838;2024-03-02T10:49:30;14.30;74.20
37702;DHT22;23548;51.196;6.838;2024-03-02T10:51:57;14.30;75.10
37702;DHT22;23548;51.196;6.838;2024-03-02T10:54:23;14.30;74.50
37702;DHT22;23548;51.196;6.838;2024-03-02T10:56:53;14.20;74.40
37702;DHT22;23548;51.196;6.838;2024-03-02T10:59:35;13.80;74.30
37702;DHT22;23548;51.196;6.838;2024-03-02T11:02:03;13.70;75.30
37702;DHT22;23548;51.196;6.838;2024-03-02T11:04:30;13.80;77.00
37702;DHT22;23548;51.196;6.838;2024-03-02T11:07:04;13.80;79.60
37702;DHT22;23548;51.196;6.838;2024-03-02T11:09:33;13.90;79.40
37702;DHT22;23548;51.196;6.838;2024-03-02T11:12:23;13.80;74.00
37702;DHT22;23548;51.196;6.838;2024-03-02T11:14:55;13.50;73.80
37702;DHT22;23548;51.196;6.838;2024-03-02T11:17:21;13.50;74.00
37702;DHT22;23548;51.196;6.838;2024-03-02T11:19:49;13.20;76.70
37702;DHT22;23548;51.196;6.838;2024-03-02T11:22:15;13.40;75.70
37702;DHT22;23548;51.196;6.838;2024-03-02T11:24:51;13.50;76.60
37702;DHT22;23548;51.196;6.838;2024-03-02T11:35:29;13.80;73.80
37702;DHT22;23548;51.196;6.838;2024-03-02T11:37:55;13.70;73.50
37702;DHT22;23548;51.196;6.838;2024-03-02T11:40:27;14.00;76.30
37702;DHT22;23548;51.196;6.838;2024-03-02T11:42:54;14.00;73.10
37702;DHT22;23548;51.196;6.838;2024-03-02T11:45:27;14.10;72.20
37702;DHT22;23548;51.196;6.838;2024-03-02T11:47:57;14.20;73.40
37702;DHT22;23548;51.196;6.838;2024-03-02T11:50:30;14.10;72.10
37702;DHT22;23548;51.196;6.838;2024-03-02T11:52:58;14.20;71.90
37702;DHT22;23548;51.196;6.838;2024-03-02T11:55:26;14.30;71.50
37702;DHT22;23548;51.196;6.838;2024-03-02T11:57:55;14.30;71.60
37702;DHT22;23548;51.196;6.838;2024-03-02T12:00:21;14.30;73.80
37702;DHT22;23548;51.196;6.838;2024-03-02T12:03:01;14.40;70.40
37702;DHT22;23548;51.196;6.838;2024-03-02T12:05:28;14.10;69.60
37702;DHT22;23548;51.196;6.838;2024-03-02T12:07:59;14.10;70.10
37702;DHT22;23548;51.196;6.838;2024-03-02T12:10:26;14.10;70.20
37702;DHT22;23548;51.196;6.838;2024-03-02T12:13:03;14.10;70.20
37702;DHT22;23548;51.196;6.838;2024-03-02T12:15:34;14.30;71.70
37702;DHT22;23548;51.196;6.838;2024-03-02T12:18:02;14.40;69.60
37702;DHT22;23548;51.196;6.838;2024-03-02T12:20:30;14.50;69.80
37702;DHT22;23548;51.196;6.838;2024-03-02T12:22:59;14.70;70.70
37702;DHT22;23548;51.196;6.838;2024-03-02T12:25:26;15.00;70.20
37702;DHT22;23548;51.196;6.838;2024-03-02T12:27:57;15.10;72.50
37702;DHT22;23548;51.196;6.838;2024-03-02T12:30:24;15.10;66.70
37702;DHT22;23548;51.196;6.838;2024-03-02T12:32:50;15.20;67.20
37702;DHT22;23548;51.196;6.838;2024-03-02T12:35:18;15.30;65.90
37702;DHT22;23548;51.196;6.838;2024-03-02T12:37:51;15.30;66.30
37702;DHT22;23548;51.196;6.838;2024-03-02T12:40:18;15.30;66.50
37702;DHT22;23548;51.196;6.838;2024-03-02T12:42:45;15.60;66.50
37702;DHT22;23548;51.196;6.838;2024-03-02T12:45:15;15.60;66.20
37702;DHT22;23548;51.196;6.838;2024-03-02T12:47:42;15.60;65.70
37702;DHT22;23548;51.196;6.838;2024-03-02T12:50:08;15.70;65.50
37702;DHT22;23548;51.196;6.838;2024-03-02T12:52:35;15.80;66.90
37702;DHT22;23548;51.196;6.838;2024-03-02T12:55:04;15.80;65.10
37702;DHT22;23548;51.196;6.838;2024-03-02T12:57:31;15.70;64.80
37702;DHT22;23548;51.196;6.838;2024-03-02T13:00:04;15.60;68.20
37702;DHT22;23548;51.196;6.838;2024-03-02T13:02:42;15.70;69.40
37702;DHT22;23548;51.196;6.838;2024-03-02T13:05:09;15.90;68.40
37702;DHT22;23548;51.196;6.838;2024-03-02T13:07:37;15.80;67.90
37702;DHT22;23548;51.196;6.838;2024-03-02T13:10:04;15.50;65.00
37702;DHT22;23548;51.196;6.838;2024-03-02T13:12:30;15.70;64.20
37702;DHT22;23548;51.196;6.838;2024-03-02T13:14:58;15.80;64.80
37702;DHT22;23548;51.196;6.838;2024-03-02T13:17:24;15.70;63.70
37702;DHT22;23548;51.196;6.838;2024-03-02T13:19:57;15.80;63.40
37702;DHT22;23548;51.196;6.838;2024-03-02T13:22:24;15.70;64.40
37702;DHT22;23548;51.196;6.838;2024-03-02T13:24:50;15.60;66.70
37702;DHT22;23548;51.196;6.838;2024-03-02T13:27:16;15.60;64.20
37702;DHT22;23548;51.196;6.838;2024-03-02T13:29:45;15.50;65.20
37702;DHT22;23548;51.196;6.838;2024-03-02T13:32:13;15.40;67.60
37702;DHT22;23548;51.196;6.838;2024-03-02T13:34:38;15.50;65.20
37702;DHT22;23548;51.196;6.838;2024-03-02T13:37:04;15.60;65.60
37702;DHT22;23548;51.196;6.838;2024-03-02T13:39:32;15.80;63.20
37702;DHT22;23548;51.196;6.838;2024-03-02T13:41:58;16.00;64.50
37702;DHT22;23548;51.196;6.838;2024-03-02T13:44:31;16.10;63.80
37702;DHT22;23548;51.196;6.838;2024-03-02T13:46:58;16.60;67.10
37702;DHT22;23548;51.196;6.838;2024-03-02T13:49:24;16.20;62.30
37702;DHT22;23548;51.196;6.838;2024-03-02T13:51:54;16.20;62.50
37702;DHT22;23548;51.196;6.838;2024-03-02T13:54:21;16.30;61.70
37702;DHT22;23548;51.196;6.838;2024-03-02T13:56:47;16.20;61.30
37702;DHT22;23548;51.196;6.838;2024-03-02T13:59:13;15.90;60.30
37702;DHT22;23548;51.196;6.838;2024-03-02T14:01:38;15.70;64.50
37702;DHT22;23548;51.196;6.838;2024-03-02T14:04:04;15.80;61.90
37702;DHT22;23548;51.196;6.838;2024-03-02T14:06:31;16.10;65.50
37702;DHT22;23548;51.196;6.838;2024-03-02T14:08:56;16.00;61.40
37702;DHT22;23548;51.196;6.838;2024-03-02T14:11:22;15.60;60.80
37702;DHT22;23548;51.196;6.838;2024-03-02T14:13:48;15.80;66.70
37702;DHT22;23548;51.196;6.838;2024-03-02T14:16:19;15.80;60.70
37702;DHT22;23548;51.196;6.838;2024-03-02T14:18:45;15.70;62.20
37702;DHT22;23548;51.196;6.838;2024-03-02T14:21:10;15.80;61.10
37702;DHT22;23548;51.196;6.838;2024-03-02T14:23:36;15.90;61.80
37702;DHT22;23548;51.196;6.838;2024-03-02T14:26:02;15.90;62.80
37702;DHT22;23548;51.196;6.838;2024-03-02T14:28:28;15.90;61.60
37702;DHT22;23548;51.196;6.838;2024-03-02T14:30:54;16.00;60.70
37702;DHT22;23548;51.196;6.838;2024-03-02T14:33:20;16.30;59.50
37702;DHT22;23548;51.196;6.838;2024-03-02T14:35:46;16.70;58.40
37702;DHT22;23548;51.196;6.838;2024-03-02T14:38:13;16.60;59.80
37702;DHT22;23548;51.196;6.838;2024-03-02T14:40:38;17.00;59.30
37702;DHT22;23548;51.196;6.838;2024-03-02T14:43:04;17.70;59.50
37702;DHT22;23548;51.196;6.838;2024-03-02T14:45:30;17.60;57.40
37702;DHT22;23548;51.196;6.838;2024-03-02T14:47:56;17.20;57.80
37702;DHT22;23548;51.196;6.838;2024-03-02T14:50:25;16.90;57.70
37702;DHT22;23548;51.196;6.838;2024-03-02T14:52:51;16.80;59.80
37702;DHT22;23548;51.196;6.838;2024-03-02T14:55:17;17.70;58.90
37702;DHT22;23548;51.196;6.838;2024-03-02T14:57:43;18.50;57.60
37702;DHT22;23548;51.196;6.838;2024-03-02T15:00:09;18.60;55.60
37702;DHT22;23548;51.196;6.838;2024-03-02T15:02:37;18.10;55.60
37702;DHT22;23548;51.196;6.838;2024-03-02T15:05:03;18.10;55.20
37702;DHT22;23548;51.196;6.838;2024-03-02T15:07:31;17.80;54.60
37702;DHT22;23548;51.196;6.838;2024-03-02T15:09:57;18.10;55.90
37702;DHT22;23548;51.196;6.838;2024-03-02T15:12:23;18.70;53.00
37702;DHT22;23548;51.196;6.838;2024-03-02T15:14:49;18.10;56.50
37702;DHT22;23548;51.196;6.838;2024-03-02T15:17:15;17.30;56.20
37702;DHT22;23548;51.196;6.838;2024-03-02T15:19:45;17.10;55.40
37702;DHT22;23548;51.196;6.838;2024-03-02T15:22:11;17.20;58.20
37702;DHT22;23548;51.196;6.838;2024-03-02T15:24:37;18.20;55.20
37702;DHT22;23548;51.196;6.838;2024-03-02T15:27:04;18.50;52.90
37702;DHT22;23548;51.196;6.838;2024-03-02T15:29:31;18.20;52.30
37702;DHT22;23548;51.196;6.838;2024-03-02T15:31:58;18.50;52.00
37702;DHT22;23548;51.196;6.838;2024-03-02T15:34:24;19.30;51.30
37702;DHT22;23548;51.196;6.838;2024-03-02T15:36:50;18.70;50.80
37702;DHT22;23548;51.196;6.838;2024-03-02T15:39:16;17.50;53.50
37702;DHT22;23548;51.196;6.838;2024-03-02T15:41:44;16.90;54.00
37702;DHT22;23548;51.196;6.838;2024-03-02T15:44:10;16.00;56.30
37702;DHT22;23548;51.196;6.838;2024-03-02T15:46:36;15.70;56.60
37702;DHT22;23548;51.196;6.838;2024-03-02T15:49:02;15.30;57.70
37702;DHT22;23548;51.196;6.838;2024-03-02T15:51:31;15.00;58.00